sensor_id;sensor_type;location;lat;lon;timestamp;temperature;humidity
22145;DHT22;11238;48.730;11.566;2023-08-01T00:00:02;17.40;99.90
22145;DHT22;11238;48.730;11.566;2023-08-01T00:02:37;17.40;99.90
22145;DHT22;11238;48.730;11.566;2023-08-01T00:05:04;17.40;99.90
22145;DHT22;11238;48.730;11.566;2023-08-01T00:07:30;17.40;99.90
22145;DHT22;11238;48.730;11.566;2023-08-01T00:09:56;17.20;99.90
22145;DHT22;11238;48.730;11.566;2023-08-01T00:12:24;17.30;99.90
22145;DHT22;11238;48.730;11.566;2023-08-01T00:14:50;17.30;99.90
22145;DHT22;11238;48.730;11.566;2023-08-01T00:17:16;17.20;99.90
22145;DHT22;11238;48.730;11.566;2023-08-01T00:19:42;17.30;99.90
22145;DHT22;11238;48.730;11.566;2023-08-01T00:22:08;17.20;99.90
22145;DHT22;11238;48.730;11.566;2023-08-01T00:24:35;17.40;99.90
22145;DHT22;11238;48.730;11.566;2023-08-01T00:27:01;17.30;99.90
22145;DHT22;11238;48.730;11.566;2023-08-01T00:29:27;17.40;99.90
22145;DHT22;11238;48.730;11.566;2023-08-01T00:31:52;17.50;99.90
22145;DHT22;11238;48.730;11.566;2023-08-01T00:34:18;17.60;99.90
22145;DHT22;11238;48.730;11.566;2023-08-01T00:36:45;17.60;99.90
22145;DHT22;11238;48.730;11.566;2023-08-01T00:39:10;17.60;99.90
22145;DHT22;11238;48.730;11.566;2023-08-01T00:41:36;17.50;99.90
22145;DHT22;11238;48.730;11.566;2023-08-01T00:44:02;17.60;99.90
22145;DHT22;11238;48.730;11.566;2023-08-01T00:46:29;17.50;99.90
22145;DHT22;11238;48.730;11.566;2023-08-01T00:48:55;17.50;99.90
22145;DHT22;11238;48.730;11.566;2023-08-01T00:51:24;17.50;99.90
22145;DHT22;11238;48.730;11.566;2023-08-01T00:53:51;17.40;99.90
22145;DHT22;11238;48.730;11.566;2023-08-01T00:56:17;17.40;99.90
22145;DHT22;11238;48.730;11.566;2023-08-01T00:58:44;17.40;99.90
22145;DHT22;11238;48.730;11.566;2023-08-01T01:01:10;17.40;99.90
22145;DHT22;11238;48.730;11.566;2023-08-01T01:03:36;17.30;99.90
22145;DHT22;11238;48.730;11.566;2023-08-01T01:07:00;17.30;99.90
22145;DHT22;11238;48.730;11.566;2023-08-01T01:09:01;17.20;99.90
22145;DHT22;11238;48.730;11.566;2023-08-01T01:11:30;17.10;99.90
22145;DHT22;11238;48.730;11.566;2023-08-01T01:13:56;17.00;99.90
22145;DHT22;11238;48.730;11.566;2023-08-01T01:16:22;17.00;99.90
22145;DHT22;11238;48.730;11.566;2023-08-01T01:18:47;17.00;99.90
22145;DHT22;11238;48.730;11.566;2023-08-01T01:21:38;17.10;99.90
22145;DHT22;11238;48.730;11.566;2023-08-01T01:24:06;17.20;99.90
22145;DHT22;11238;48.730;11.566;2023-08-01T01:26:34;17.30;99.90
22145;DHT22;11238;48.730;11.566;2023-08-01T01:29:02;17.30;99.90
22145;DHT22;11238;48.730;11.566;2023-08-01T01:31:29;17.40;99.90
22145;DHT22;11238;48.730;11.566;2023-08-01T01:33:56;17.20;99.90
22145;DHT22;11238;48.730;11.566;2023-08-01T01:36:22;17.20;99.90
22145;DHT22;11238;48.730;11.566;2023-08-01T01:38:48;17.30;99.90
22145;DHT22;11238;48.730;11.566;2023-08-01T01:41:14;17.40;99.90
22145;DHT22;11238;48.730;11.566;2023-08-01T01:43:40;17.40;99.90
22145;DHT22;11238;48.730;11.566;2023-08-01T01:46:06;17.40;99.90
22145;DHT22;11238;48.730;11.566;2023-08-01T01:48:32;17.50;99.90
22145;DHT22;11238;48.730;11.566;2023-08-01T01:50:58;17.50;99.90
22145;DHT22;11238;48.730;11.566;2023-08-01T01:53:24;17.60;99.90
22145;DHT22;11238;48.730;11.566;2023-08-01T01:55:50;17.50;99.90
22145;DHT22;11238;48.730;11.566;2023-08-01T01:58:16;17.50;99.90
22145;DHT22;11238;48.730;11.566;2023-08-01T02:00:42;17.50;99.90
22145;DHT22;11238;48.730;11.566;2023-08-01T02:03:08;17.50;99.90
22145;DHT22;11238;48.730;11.566;2023-08-01T02:05:36;17.50;99.90
22145;DHT22;11238;48.730;11.566;2023-08-01T02:08:03;17.60;99.90
22145;DHT22;11238;48.730;11.566;2023-08-01T02:10:31;17.60;99.90
22145;DHT22;11238;48.730;11.566;2023-08-01T02:12:56;17.60;99.90
22145;DHT22;11238;48.730;11.566;2023-08-01T02:15:22;17.60;99.90
22145;DHT22;11238;48.730;11.566;2023-08-01T02:17:48;17.60;99.90
22145;DHT22;11238;48.730;11.566;2023-08-01T02:20:14;17.60;99.90
22145;DHT22;11238;48.730;11.566;2023-08-01T02:22:40;17.60;99.90
22145;DHT22;11238;48.730;11.566;2023-08-01T02:25:07;17.50;99.90
22145;DHT22;11238;48.730;11.566;2023-08-01T02:27:33;17.50;99.90
22145;DHT22;11238;48.730;11.566;2023-08-01T02:29:59;17.60;99.90
22145;DHT22;11238;48.730;11.566;2023-08-01T02:32:24;17.60;99.90
22145;DHT22;11238;48.730;11.566;2023-08-01T02:34:50;17.70;99.90
22145;DHT22;11238;48.730;11.566;2023-08-01T02:37:18;17.60;99.90
22145;DHT22;11238;48.730;11.566;2023-08-01T02:39:44;17.60;99.90
22145;DHT22;11238;48.730;11.566;2023-08-01T02:42:10;17.60;99.90
22145;DHT22;11238;48.730;11.566;2023-08-01T02:44:36;17.60;99.90
22145;DHT22;11238;48.730;11.566;2023-08-01T02:47:02;17.30;99.90
22145;DHT22;11238;48.730;11.566;2023-08-01T02:49:28;17.40;99.90
22145;DHT22;11238;48.730;11.566;2023-08-01T02:51:54;17.40;99.90
22145;DHT22;11238;48.730;11.566;2023-08-01T02:54:42;17.40;99.90
22145;DHT22;11238;48.730;11.566;2023-08-01T02:57:11;17.20;99.90
22145;DHT22;11238;48.730;11.566;2023-08-01T02:59:36;17.20;99.90
22145;DHT22;11238;48.730;11.566;2023-08-01T03:02:02;17.30;99.90
22145;DHT22;11238;48.730;11.566;2023-08-01T03:04:29;17.10;99.90
22145;DHT22;11238;48.730;11.566;2023-08-01T03:06:55;17.10;99.90
22145;DHT22;11238;48.730;11.566;2023-08-01T03:09:21;17.10;99.90
22145;DHT22;11238;48.730;11.566;2023-08-01T03:11:47;17.10;99.90
22145;DHT22;11238;48.730;11.566;2023-08-01T03:14:13;17.20;99.90
22145;DHT22;11238;48.730;11.566;2023-08-01T03:16:39;17.30;99.90
22145;DHT22;11238;48.730;11.566;2023-08-01T03:19:05;17.30;99.90
22145;DHT22;11238;48.730;11.566;2023-08-01T03:21:34;17.40;99.90
22145;DHT22;11238;48.730;11.566;2023-08-01T03:24:02;17.40;99.90
22145;DHT22;11238;48.730;11.566;2023-08-01T03:26:28;17.50;99.90
22145;DHT22;11238;48.730;11.566;2023-08-01T03:28:55;17.60;99.90
22145;DHT22;11238;48.730;11.566;2023-08-01T03:31:24;17.70;99.90
22145;DHT22;11238;48.730;11.566;2023-08-01T03:33:50;17.80;99.90
22145;DHT22;11238;48.730;11.566;2023-08-01T03:36:16;17.80;99.90
22145;DHT22;11238;48.730;11.566;2023-08-01T03:38:41;17.80;99.90
22145;DHT22;11238;48.730;11.566;2023-08-01T03:41:07;17.80;99.90
22145;DHT22;11238;48.730;11.566;2023-08-01T03:43:33;17.80;99.90
22145;DHT22;11238;48.730;11.566;2023-08-01T03:45:59;17.60;99.90
22145;DHT22;11238;48.730;11.566;2023-08-01T03:48:25;17.60;99.90
22145;DHT22;11238;48.730;11.566;2023-08-01T03:50:51;17.50;99.90
22145;DHT22;11238;48.730;11.566;2023-08-01T03:53:16;17.40;99.90
22145;DHT22;11238;48.730;11.566;2023-08-01T03:55:44;17.30;99.90
22145;DHT22;11238;48.730;11.566;2023-08-01T03:58:10;17.20;99.90
22145;DHT22;11238;48.730;11.566;2023-08-01T04:00:35;17.20;99.90
22145;DHT22;11238;48.730;11.566;2023-08-01T04:03:01;17.10;99.90
22145;DHT22;11238;48.730;11.566;2023-08-01T04:05:28;17.10;99.90
22145;DHT22;11238;48.730;11.566;2023-08-01T04:07:54;17.00;99.90
22145;DHT22;11238;48.730;11.566;2023-08-01T04:10:21;17.00;99.90
22145;DHT22;11238;48.730;11.566;2023-08-01T04:12:47;16.90;99.90
22145;DHT22;11238;48.730;11.566;2023-08-01T04:15:13;16.90;99.90
22145;DHT22;11238;48.730;11.566;2023-08-01T04:17:39;16.90;99.90
22145;DHT22;11238;48.730;11.566;2023-08-01T04:20:05;16.80;99.90
22145;DHT22;11238;48.730;11.566;2023-08-01T04:22:31;16.90;99.90
22145;DHT22;11238;48.730;11.566;2023-08-01T04:24:57;16.90;99.90
22145;DHT22;11238;48.730;11.566;2023-08-01T04:27:23;16.90;99.90
22145;DHT22;11238;48.730;11.566;2023-08-01T04:29:49;16.90;99.90
22145;DHT22;11238;48.730;11.566;2023-08-01T04:32:15;16.90;99.90
22145;DHT22;11238;48.730;11.566;2023-08-01T04:34:41;16.90;99.90
22145;DHT22;11238;48.730;11.566;2023-08-01T04:37:08;16.80;99.90
22145;DHT22;11238;48.730;11.566;2023-08-01T04:39:34;16.90;99.90
22145;DHT22;11238;48.730;11.566;2023-08-01T04:41:59;16.90;99.90
22145;DHT22;11238;48.730;11.566;2023-08-01T04:44:25;16.90;99.90
22145;DHT22;11238;48.730;11.566;2023-08-01T04:46:52;16.80;99.90
22145;DHT22;11238;48.730;11.566;2023-08-01T04:49:18;16.80;99.90
22145;DHT22;11238;48.730;11.566;2023-08-01T04:51:44;16.90;99.90
22145;DHT22;11238;48.730;11.566;2023-08-01T04:54:10;16.90;99.90
22145;DHT22;11238;48.730;11.566;2023-08-01T04:56:37;16.90;99.90
22145;DHT22;11238;48.730;11.566;2023-08-01T04:59:03;16.90;99.90
22145;DHT22;11238;48.730;11.566;2023-08-01T05:01:28;16.90;99.90
22145;DHT22;11238;48.730;11.566;2023-08-01T05:03:54;16.90;99.90
22145;DHT22;11238;48.730;11.566;2023-08-01T05:06:20;16.90;99.90
22145;DHT22;11238;48.730;11.566;2023-08-01T05:08:46;16.80;99.90
22145;DHT22;11238;48.730;11.566;2023-08-01T05:11:12;16.90;99.90
22145;DHT22;11238;48.730;11.566;2023-08-01T05:13:38;16.90;99.90
22145;DHT22;11238;48.730;11.566;2023-08-01T05:16:04;16.90;99.90
22145;DHT22;11238;48.730;11.566;2023-08-01T05:18:30;16.90;99.90
22145;DHT22;11238;48.730;11.566;2023-08-01T05:20:56;16.90;99.90
22145;DHT22;11238;48.730;11.566;2023-08-01T05:23:22;16.90;99.90
22145;DHT22;11238;48.730;11.566;2023-08-01T05:25:48;16.90;99.90
22145;DHT22;11238;48.730;11.566;2023-08-01T05:28:17;17.00;99.90
22145;DHT22;11238;48.730;11.566;2023-08-01T05:30:43;17.00;99.90
22145;DHT22;11238;48.730;11.566;2023-08-01T05:33:11;17.00;99.90
22145;DHT22;11238;48.730;11.566;2023-08-01T05:35:37;17.00;99.90
22145;DHT22;11238;48.730;11.566;2023-08-01T05:38:03;17.10;99.90
22145;DHT22;11238;48.730;11.566;2023-08-01T05:40:29;17.10;99.90
22145;DHT22;11238;48.730;11.566;2023-08-01T05:42:54;17.10;99.90
22145;DHT22;11238;48.730;11.566;2023-08-01T05:45:20;17.20;99.90
22145;DHT22;11238;48.730;11.566;2023-08-01T05:47:46;17.40;99.90
22145;DHT22;11238;48.730;11.566;2023-08-01T05:50:12;17.50;99.90
22145;DHT22;11238;48.730;11.566;2023-08-01T05:52:38;17.50;99.90
22145;DHT22;11238;48.730;11.566;2023-08-01T05:55:04;17.50;99.90
22145;DHT22;11238;48.730;11.566;2023-08-01T05:57:31;17.50;99.90
22145;DHT22;11238;48.730;11.566;2023-08-01T05:59:56;17.50;99.90
22145;DHT22;11238;48.730;11.566;2023-08-01T06:02:22;17.60;99.90
22145;DHT22;11238;48.730;11.566;2023-08-01T06:04:48;17.60;99.90
22145;DHT22;11238;48.730;11.566;2023-08-01T06:07:14;17.70;99.90
22145;DHT22;11238;48.730;11.566;2023-08-01T06:09:40;17.60;99.90
22145;DHT22;11238;48.730;11.566;2023-08-01T06:12:06;17.70;99.90
22145;DHT22;11238;48.730;11.566;2023-08-01T06:14:32;17.70;99.90
22145;DHT22;11238;48.730;11.566;2023-08-01T06:16:58;17.70;99.90
22145;DHT22;11238;48.730;11.566;2023-08-01T06:19:24;17.70;99.90
22145;DHT22;11238;48.730;11.566;2023-08-01T06:21:49;17.60;99.90
22145;DHT22;11238;48.730;11.566;2023-08-01T06:24:15;17.60;99.90
22145;DHT22;11238;48.730;11.566;2023-08-01T06:26:41;17.60;99.90
22145;DHT22;11238;48.730;11.566;2023-08-01T06:29:07;17.60;99.90
22145;DHT22;11238;48.730;11.566;2023-08-01T06:31:32;17.50;99.90
22145;DHT22;11238;48.730;11.566;2023-08-01T06:33:58;17.60;99.90
22145;DHT22;11238;48.730;11.566;2023-08-01T06:36:23;17.60;99.90
22145;DHT22;11238;48.730;11.566;2023-08-01T06:38:49;17.60;99.90
22145;DHT22;11238;48.730;11.566;2023-08-01T06:41:15;17.60;99.90
22145;DHT22;11238;48.730;11.566;2023-08-01T06:43:41;17.60;99.90
22145;DHT22;11238;48.730;11.566;2023-08-01T06:46:07;17.60;99.90
22145;DHT22;11238;48.730;11.566;2023-08-01T06:48:33;17.60;99.90
22145;DHT22;11238;48.730;11.566;2023-08-01T06:51:01;17.60;99.90
22145;DHT22;11238;48.730;11.566;2023-08-01T06:53:30;17.70;99.90
22145;DHT22;11238;48.730;11.566;2023-08-01T06:55:57;17.70;99.90
22145;DHT22;11238;48.730;11.566;2023-08-01T06:58:23;17.70;99.90
22145;DHT22;11238;48.730;11.566;2023-08-01T07:00:49;17.80;99.90
22145;DHT22;11238;48.730;11.566;2023-08-01T07:03:15;17.90;99.90
22145;DHT22;11238;48.730;11.566;2023-08-01T07:05:40;18.00;99.90
22145;DHT22;11238;48.730;11.566;2023-08-01T07:08:06;18.00;99.90
22145;DHT22;11238;48.730;11.566;2023-08-01T07:10:34;18.20;99.90
22145;DHT22;11238;48.730;11.566;2023-08-01T07:13:01;18.20;99.90
22145;DHT22;11238;48.730;11.566;2023-08-01T07:15:30;18.20;99.90
22145;DHT22;11238;48.730;11.566;2023-08-01T07:17:56;18.30;99.90
22145;DHT22;11238;48.730;11.566;2023-08-01T07:20:22;18.30;99.90
22145;DHT22;11238;48.730;11.566;2023-08-01T07:22:48;18.40;99.90
22145;DHT22;11238;48.730;11.566;2023-08-01T07:25:14;18.50;99.90
22145;DHT22;11238;48.730;11.566;2023-08-01T07:27:43;18.60;99.90
22145;DHT22;11238;48.730;11.566;2023-08-01T07:30:08;18.80;99.90
22145;DHT22;11238;48.730;11.566;2023-08-01T07:32:36;19.00;99.90
22145;DHT22;11238;48.730;11.566;2023-08-01T07:35:05;19.00;99.90
22145;DHT22;11238;48.730;11.566;2023-08-01T07:37:33;19.10;99.90
22145;DHT22;11238;48.730;11.566;2023-08-01T07:39:59;19.20;99.90
22145;DHT22;11238;48.730;11.566;2023-08-01T07:42:25;19.30;99.90
22145;DHT22;11238;48.730;11.566;2023-08-01T07:44:50;19.40;99.90
22145;DHT22;11238;48.730;11.566;2023-08-01T07:47:16;19.40;99.90
22145;DHT22;11238;48.730;11.566;2023-08-01T07:49:42;19.40;99.90
22145;DHT22;11238;48.730;11.566;2023-08-01T07:52:08;19.40;99.90
22145;DHT22;11238;48.730;11.566;2023-08-01T07:54:34;19.40;99.90
22145;DHT22;11238;48.730;11.566;2023-08-01T07:57:00;19.40;99.90
22145;DHT22;11238;48.730;11.566;2023-08-01T07:59:26;19.40;99.90
22145;DHT22;11238;48.730;11.566;2023-08-01T08:01:52;19.40;99.90
22145;DHT22;11238;48.730;11.566;2023-08-01T08:04:18;19.30;99.90
22145;DHT22;11238;48.730;11.566;2023-08-01T08:06:44;19.40;99.90
22145;DHT22;11238;48.730;11.566;2023-08-01T08:09:10;19.30;99.90
22145;DHT22;11238;48.730;11.566;2023-08-01T08:11:36;19.30;99.90
22145;DHT22;11238;48.730;11.566;2023-08-01T08:14:02;19.30;99.90
22145;DHT22;11238;48.730;11.566;2023-08-01T08:16:28;19.20;99.90
22145;DHT22;11238;48.730;11.566;2023-08-01T08:18:53;19.20;99.90
22145;DHT22;11238;48.730;11.566;2023-08-01T08:21:19;19.10;99.90
22145;DHT22;11238;48.730;11.566;2023-08-01T08:24:03;19.10;99.90
22145;DHT22;11238;48.730;11.566;2023-08-01T08:26:32;19.10;99.90
22145;DHT22;11238;48.730;11.566;2023-08-01T08:29:03;19.10;99.90
22145;DHT22;11238;48.730;11.566;2023-08-01T08:31:30;19.10;99.90
22145;DHT22;11238;48.730;11.566;2023-08-01T08:33:56;19.10;99.90
22145;DHT22;11238;48.730;11.566;2023-08-01T08:36:22;19.00;99.90
22145;DHT22;11238;48.730;11.566;2023-08-01T08:38:48;19.00;99.90
22145;DHT22;11238;48.730;11.566;2023-08-01T08:41:20;19.10;99.90
22145;DHT22;11238;48.730;11.566;2023-08-01T08:43:48;19.00;99.90
22145;DHT22;11238;48.730;11.566;2023-08-01T08:46:16;19.00;99.90
22145;DHT22;11238;48.730;11.566;2023-08-01T08:48:42;19.00;99.90
22145;DHT22;11238;48.730;11.566;2023-08-01T08:51:10;18.90;99.90
22145;DHT22;11238;48.730;11.566;2023-08-01T08:53:37;18.90;99.90
22145;DHT22;11238;48.730;11.566;2023-08-01T08:56:07;18.90;99.90
22145;DHT22;11238;48.730;11.566;2023-08-01T08:58:33;18.90;99.90
22145;DHT22;11238;48.730;11.566;2023-08-01T09:01:05;18.90;99.90
22145;DHT22;11238;48.730;11.566;2023-08-01T09:03:53;18.90;99.90
22145;DHT22;11238;48.730;11.566;2023-08-01T09:06:25;18.90;99.90
22145;DHT22;11238;48.730;11.566;2023-08-01T09:09:03;18.90;99.90
22145;DHT22;11238;48.730;11.566;2023-08-01T09:11:47;18.90;99.90
22145;DHT22;11238;48.730;11.566;2023-08-01T09:14:13;18.90;99.90
22145;DHT22;11238;48.730;11.566;2023-08-01T09:16:40;18.90;99.90
22145;DHT22;11238;48.730;11.566;2023-08-01T09:19:07;18.90;99.90
22145;DHT22;11238;48.730;11.566;2023-08-01T09:21:33;18.80;99.90
22145;DHT22;11238;48.730;11.566;2023-08-01T09:24:14;18.90;99.90
22145;DHT22;11238;48.730;11.566;2023-08-01T09:26:40;18.80;99.90
22145;DHT22;11238;48.730;11.566;2023-08-01T09:29:07;18.70;99.90
22145;DHT22;11238;48.730;11.566;2023-08-01T09:31:38;18.60;99.90
22145;DHT22;11238;48.730;11.566;2023-08-01T09:34:06;18.50;99.90
22145;DHT22;11238;48.730;11.566;2023-08-01T09:36:33;18.40;99.90
22145;DHT22;11238;48.730;11.566;2023-08-01T09:39:01;18.30;99.90
22145;DHT22;11238;48.730;11.566;2023-08-01T09:41:28;18.20;99.90
22145;DHT22;11238;48.730;11.566;2023-08-01T09:43:54;18.20;99.90
22145;DHT22;11238;48.730;11.566;2023-08-01T09:46:20;18.20;99.90
22145;DHT22;11238;48.730;11.566;2023-08-01T09:48:46;18.10;99.90
22145;DHT22;11238;48.730;11.566;2023-08-01T09:51:14;18.00;99.90
22145;DHT22;11238;48.730;11.566;2023-08-01T09:56:17;17.60;99.90
22145;DHT22;11238;48.730;11.566;2023-08-01T09:58:45;17.50;99.90
22145;DHT22;11238;48.730;11.566;2023-08-01T10:01:12;17.40;99.90
22145;DHT22;11238;48.730;11.566;2023-08-01T10:03:41;17.20;99.90
22145;DHT22;11238;48.730;11.566;2023-08-01T10:06:10;17.10;99.90
22145;DHT22;11238;48.730;11.566;2023-08-01T10:08:39;17.10;99.90
22145;DHT22;11238;48.730;11.566;2023-08-01T10:11:05;17.00;99.90
22145;DHT22;11238;48.730;11.566;2023-08-01T10:13:32;16.90;99.90
22145;DHT22;11238;48.730;11.566;2023-08-01T10:15:58;16.80;99.90
22145;DHT22;11238;48.730;11.566;2023-08-01T10:18:24;16.80;99.90
22145;DHT22;11238;48.730;11.566;2023-08-01T10:20:53;16.80;99.90
22145;DHT22;11238;48.730;11.566;2023-08-01T10:23:19;16.80;99.90
22145;DHT22;11238;48.730;11.566;2023-08-01T10:25:45;16.90;99.90
22145;DHT22;11238;48.730;11.566;2023-08-01T10:28:11;16.80;99.90
22145;DHT22;11238;48.730;11.566;2023-08-01T10:30:37;16.90;99.90
22145;DHT22;11238;48.730;11.566;2023-08-01T10:33:03;16.80;99.90
22145;DHT22;11238;48.730;11.566;2023-08-01T10:35:47;16.90;99.90
22145;DHT22;11238;48.730;11.566;2023-08-01T10:38:13;16.90;99.90
22145;DHT22;11238;48.730;11.566;2023-08-01T10:40:41;16.90;99.90
22145;DHT22;11238;48.730;11.566;2023-08-01T10:43:21;17.00;99.90
22145;DHT22;11238;48.730;11.566;2023-08-01T10:45:59;17.00;99.90
22145;DHT22;11238;48.730;11.566;2023-08-01T10:48:26;17.10;99.90
22145;DHT22;11238;48.730;11.566;2023-08-01T10:50:55;17.30;99.90
22145;DHT22;11238;48.730;11.566;2023-08-01T10:53:22;17.30;99.90
22145;DHT22;11238;48.730;11.566;2023-08-01T10:55:48;17.40;99.90
22145;DHT22;11238;48.730;11.566;2023-08-01T10:58:15;17.40;99.90
22145;DHT22;11238;48.730;11.566;2023-08-01T11:00:42;17.50;99.90
22145;DHT22;11238;48.730;11.566;2023-08-01T11:03:08;17.50;99.90
22145;DHT22;11238;48.730;11.566;2023-08-01T11:05:34;17.50;99.90
22145;DHT22;11238;48.730;11.566;2023-08-01T11:08:02;17.50;99.90
22145;DHT22;11238;48.730;11.566;2023-08-01T11:10:29;17.50;99.90
22145;DHT22;11238;48.730;11.566;2023-08-01T11:12:56;17.60;99.90
22145;DHT22;11238;48.730;11.566;2023-08-01T11:15:23;17.60;99.90
22145;DHT22;11238;48.730;11.566;2023-08-01T11:17:54;17.70;99.90
22145;DHT22;11238;48.730;11.566;2023-08-01T11:20:22;17.70;99.90
22145;DHT22;11238;48.730;11.566;2023-08-01T11:23:06;17.70;99.90
22145;DHT22;11238;48.730;11.566;2023-08-01T11:25:38;17.70;99.90
22145;DHT22;11238;48.730;11.566;2023-08-01T11:28:26;17.80;99.90
22145;DHT22;11238;48.730;11.566;2023-08-01T11:30:52;17.80;99.90
22145;DHT22;11238;48.730;11.566;2023-08-01T11:33:22;17.90;99.90
22145;DHT22;11238;48.730;11.566;2023-08-01T11:35:56;17.90;99.90
22145;DHT22;11238;48.730;11.566;2023-08-01T11:38:23;18.00;99.90
22145;DHT22;11238;48.730;11.566;2023-08-01T11:40:51;18.00;99.90
22145;DHT22;11238;48.730;11.566;2023-08-01T11:43:17;18.00;99.90
22145;DHT22;11238;48.730;11.566;2023-08-01T11:45:56;18.00;99.90
22145;DHT22;11238;48.730;11.566;2023-08-01T11:48:24;18.00;99.90
22145;DHT22;11238;48.730;11.566;2023-08-01T11:51:00;17.90;99.90
22145;DHT22;11238;48.730;11.566;2023-08-01T11:53:27;17.80;99.90
22145;DHT22;11238;48.730;11.566;2023-08-01T11:55:54;17.80;99.90
22145;DHT22;11238;48.730;11.566;2023-08-01T11:58:41;17.70;99.90
22145;DHT22;11238;48.730;11.566;2023-08-01T12:01:12;17.70;99.90
22145;DHT22;11238;48.730;11.566;2023-08-01T12:03:43;17.60;99.90
22145;DHT22;11238;48.730;11.566;2023-08-01T12:06:09;17.70;99.90
22145;DHT22;11238;48.730;11.566;2023-08-01T12:08:37;17.60;99.90
22145;DHT22;11238;48.730;11.566;2023-08-01T12:11:03;17.60;99.90
22145;DHT22;11238;48.730;11.566;2023-08-01T12:13:29;17.60;99.90
22145;DHT22;11238;48.730;11.566;2023-08-01T12:15:57;17.60;99.90
22145;DHT22;11238;48.730;11.566;2023-08-01T12:18:29;17.60;99.90
22145;DHT22;11238;48.730;11.566;2023-08-01T12:20:55;17.70;99.90
22145;DHT22;11238;48.730;11.566;2023-08-01T12:23:23;17.70;99.90
22145;DHT22;11238;48.730;11.566;2023-08-01T12:25:48;17.70;99.90
22145;DHT22;11238;48.730;11.566;2023-08-01T12:28:15;17.70;99.90
22145;DHT22;11238;48.730;11.566;2023-08-01T12:30:42;17.70;99.90
22145;DHT22;11238;48.730;11.566;2023-08-01T12:33:10;17.60;99.90
22145;DHT22;11238;48.730;11.566;2023-08-01T12:35:41;17.60;99.90
22145;DHT22;11238;48.730;11.566;2023-08-01T12:38:08;17.70;99.90
22145;DHT22;11238;48.730;11.566;2023-08-01T12:40:34;17.70;99.90
22145;DHT22;11238;48.730;11.566;2023-08-01T12:43:00;17.70;99.90
22145;DHT22;11238;48.730;11.566;2023-08-01T12:45:25;17.60;99.90
22145;DHT22;11238;48.730;11.566;2023-08-01T12:47:54;17.70;99.90
22145;DHT22;11238;48.730;11.566;2023-08-01T12:50:19;17.70;99.90
22145;DHT22;11238;48.730;11.566;2023-08-01T12:52:45;17.70;99.90
22145;DHT22;11238;48.730;11.566;2023-08-01T12:55:11;17.80;99.90
22145;DHT22;11238;48.730;11.566;2023-08-01T12:57:37;17.90;99.90
22145;DHT22;11238;48.730;11.566;2023-08-01T13:00:04;18.00;99.90
22145;DHT22;11238;48.730;11.566;2023-08-01T13:02:29;18.10;99.90
22145;DHT22;11238;48.730;11.566;2023-08-01T13:04:55;18.20;99.90
22145;DHT22;11238;48.730;11.566;2023-08-01T13:07:21;18.30;99.90
22145;DHT22;11238;48.730;11.566;2023-08-01T13:09:48;18.40;99.90
22145;DHT22;11238;48.730;11.566;2023-08-01T13:12:14;18.30;99.90
22145;DHT22;11238;48.730;11.566;2023-08-01T13:14:39;18.30;99.90
22145;DHT22;11238;48.730;11.566;2023-08-01T13:17:05;18.30;99.90
22145;DHT22;11238;48.730;11.566;2023-08-01T13:19:31;18.30;99.90
22145;DHT22;11238;48.730;11.566;2023-08-01T13:21:57;18.50;99.90
22145;DHT22;11238;48.730;11.566;2023-08-01T13:24:22;18.50;99.90
22145;DHT22;11238;48.730;11.566;2023-08-01T13:26:48;19.00;99.90
22145;DHT22;11238;48.730;11.566;2023-08-01T13:29:14;19.40;99.90
22145;DHT22;11238;48.730;11.566;2023-08-01T13:31:43;19.70;99.90
22145;DHT22;11238;48.730;11.566;2023-08-01T13:34:09;20.10;99.90
22145;DHT22;11238;48.730;11.566;2023-08-01T13:36:35;20.30;99.90
22145;DHT22;11238;48.730;11.566;2023-08-01T13:39:01;20.40;99.90
22145;DHT22;11238;48.730;11.566;2023-08-01T13:41:27;20.20;99.90
22145;DHT22;11238;48.730;11.566;2023-08-01T13:43:53;20.40;99.90
22145;DHT22;11238;48.730;11.566;2023-08-01T13:46:19;20.50;99.90
22145;DHT22;11238;48.730;11.566;2023-08-01T13:48:47;20.50;99.90
22145;DHT22;11238;48.730;11.566;2023-08-01T13:51:13;20.60;99.90
22145;DHT22;11238;48.730;11.566;2023-08-01T13:53:39;20.50;99.90
22145;DHT22;11238;48.730;11.566;2023-08-01T13:56:09;20.30;99.90
22145;DHT22;11238;48.730;11.566;2023-08-01T13:58:36;20.20;99.90
22145;DHT22;11238;48.730;11.566;2023-08-01T14:01:03;20.00;99.90
22145;DHT22;11238;48.730;11.566;2023-08-01T14:03:38;20.00;99.90
22145;DHT22;11238;48.730;11.566;2023-08-01T14:06:10;20.30;99.90
22145;DHT22;11238;48.730;11.566;2023-08-01T14:08:37;20.50;99.90
22145;DHT22;11238;48.730;11.566;2023-08-01T14:11:05;20.40;99.90
22145;DHT22;11238;48.730;11.566;2023-08-01T14:13:32;20.30;99.90
22145;DHT22;11238;48.730;11.566;2023-08-01T14:15:58;20.50;99.90
22145;DHT22;11238;48.730;11.566;2023-08-01T14:18:24;20.60;99.90
22145;DHT22;11238;48.730;11.566;2023-08-01T14:20:50;20.50;99.90
22145;DHT22;11238;48.730;11.566;2023-08-01T14:23:17;20.50;99.90
22145;DHT22;11238;48.730;11.566;2023-08-01T14:25:43;20.50;99.90
22145;DHT22;11238;48.730;11.566;2023-08-01T14:28:09;20.40;99.90
22145;DHT22;11238;48.730;11.566;2023-08-01T14:30:37;20.20;99.90
22145;DHT22;11238;48.730;11.566;2023-08-01T14:33:08;20.10;99.90
22145;DHT22;11238;48.730;11.566;2023-08-01T14:35:37;19.80;99.90
22145;DHT22;11238;48.730;11.566;2023-08-01T14:38:04;19.70;99.90
22145;DHT22;11238;48.730;11.566;2023-08-01T14:40:30;19.60;99.90
22145;DHT22;11238;48.730;11.566;2023-08-01T14:42:56;19.50;99.90
22145;DHT22;11238;48.730;11.566;2023-08-01T14:45:22;19.30;99.90
22145;DHT22;11238;48.730;11.566;2023-08-01T14:47:49;19.40;99.90
22145;DHT22;11238;48.730;11.566;2023-08-01T14:50:15;19.30;99.90
22145;DHT22;11238;48.730;11.566;2023-08-01T14:52:41;19.10;99.90
22145;DHT22;11238;48.730;11.566;2023-08-01T14:55:07;19.00;99.90
22145;DHT22;11238;48.730;11.566;2023-08-01T14:57:34;19.20;99.90
22145;DHT22;11238;48.730;11.566;2023-08-01T15:00:01;19.30;99.90
22145;DHT22;11238;48.730;11.566;2023-08-01T15:02:49;19.40;99.90
22145;DHT22;11238;48.730;11.566;2023-08-01T15:05:16;19.50;99.90
22145;DHT22;11238;48.730;11.566;2023-08-01T15:07:41;19.50;99.90
22145;DHT22;11238;48.730;11.566;2023-08-01T15:10:08;19.80;99.90
22145;DHT22;11238;48.730;11.566;2023-08-01T15:12:34;20.00;99.90
22145;DHT22;11238;48.730;11.566;2023-08-01T15:15:00;20.20;99.90
22145;DHT22;11238;48.730;11.566;2023-08-01T15:17:26;20.50;99.90